Terminal Aerodrome Forecast
Issued by NWS

Home | Current Version | Previous Version | Text Only | Print | Product List | Glossary On
Versions: 1 2 3 4 5 6 7 8 9 10 11 12 13 14 15 16 17 18 19 20
000
FTAK31 PAJN 022000 AAB
TAFAWG
TAF AMD
PAWG 022007Z 0220/0318 31003KT P6SM SCT003 BKN040 BKN060
     FM022200 30004KT P6SM SCT070
     FM030600 15004KT P6SM BKN050
     FM030900 VRB03KT 5SM BR SCT007 BKN015
     FM031100 VRB03KT 1SM BR BKN004 BKN007
      AMD LTD TO CLD VIS AND WIND 0306/0315=

USA.gov is the U.S. government's official web portal to all federal, state and local government web resources and services.